Time;durP1;ratioP1;P1;durP2;ratioP2;P2;SDS_P1;SDS_P2;PMS_P1;PMS_P2;Temp;Humidity;BMP_temperature;BMP_pressure;BME280_temperature;BME280_humidity;BME280_pressure;Samples;Min_cycle;Max_cycle;Signal;HPM_P1;HPM_P2
2023/03/25 00:01:24;;;;;;;7.90;6.00;;;;;;;10.59;78.17;98868.35;104834;1250;139697;-71
2023/03/25 00:03:52;;;;;;;8.40;6.20;;;;;;;10.55;78.25;98868.39;104856;1250;96046;-70
2023/03/25 00:06:20;;;;;;;7.70;5.50;;;;;;;10.52;78.46;98863.67;104889;1250;107519;-71
2023/03/25 00:08:47;;;;;;;8.10;6.20;;;;;;;10.50;78.56;98862.05;104935;1250;138985;-71
2023/03/25 00:11:15;;;;;;;10.70;6.30;;;;;;;10.49;78.57;98861.61;104912;1247;112064;-71
2023/03/25 00:13:43;;;;;;;11.60;6.30;;;;;;;10.46;78.62;98861.90;104876;1249;138738;-70
2023/03/25 00:16:11;;;;;;;10.00;6.20;;;;;;;10.45;78.59;98865.27;104826;1253;96013;-70
2023/03/25 00:18:38;;;;;;;8.60;6.40;;;;;;;10.44;78.76;98861.20;104979;1249;107191;-69
2023/03/25 00:21:09;;;;;;;8.70;6.10;;;;;;;10.44;78.72;98857.70;104802;1249;138402;-70
2023/03/25 00:23:37;;;;;;;10.80;6.20;;;;;;;10.43;78.77;98868.73;104990;1249;111285;-69
2023/03/25 00:26:05;;;;;;;11.70;6.40;;;;;;;10.41;78.80;98869.68;104764;1250;138588;-71
2023/03/25 00:28:34;;;;;;;9.10;6.30;;;;;;;10.39;78.92;98864.92;105021;1249;96067;-71
2023/03/25 00:31:03;;;;;;;8.30;6.30;;;;;;;10.34;78.95;98856.48;104700;1249;139536;-70
2023/03/25 00:33:32;;;;;;;8.40;6.50;;;;;;;10.33;78.98;98867.34;104781;1250;96116;-70
2023/03/25 00:35:59;;;;;;;11.10;6.90;;;;;;;10.31;79.11;98884.48;104907;1250;110205;-71
2023/03/25 00:38:32;;;;;;;9.90;6.60;;;;;;;10.28;79.05;98868.60;104886;1250;139254;-71
2023/03/25 00:41:05;;;;;;;10.00;7.10;;;;;;;10.26;79.18;98867.16;104998;1250;96004;-70
2023/03/25 00:43:33;;;;;;;11.10;6.90;;;;;;;10.24;79.25;98874.05;104750;1250;139168;-71
2023/03/25 00:46:00;;;;;;;14.40;7.10;;;;;;;10.21;79.31;98867.60;104999;1250;96052;-71
2023/03/25 00:48:28;;;;;;;10.90;6.70;;;;;;;10.17;79.26;98868.84;105040;1250;111065;-70
2023/03/25 00:50:55;;;;;;;10.20;7.00;;;;;;;10.14;79.37;98867.23;104826;1249;139534;-70
2023/03/25 00:53:23;;;;;;;10.70;6.40;;;;;;;10.11;79.42;98862.38;105089;1250;96290;-71
2023/03/25 00:55:50;;;;;;;9.70;6.30;;;;;;;10.08;79.37;98862.17;104637;1250;138655;-72
2023/03/25 00:58:17;;;;;;;11.40;6.90;;;;;;;10.04;79.48;98866.86;105029;1253;95912;-70
2023/03/25 01:00:47;;;;;;;9.80;6.90;;;;;;;10.00;79.43;98868.47;104997;1250;110424;-70
2023/03/25 01:03:14;;;;;;;11.00;6.50;;;;;;;9.98;79.62;98868.42;104943;1249;109088;-70
2023/03/25 01:05:41;;;;;;;9.30;7.10;;;;;;;9.96;79.71;98865.23;104950;1249;96016;-70
2023/03/25 01:08:09;;;;;;;11.50;7.50;;;;;;;9.94;79.78;98863.60;104629;1251;138203;-70
2023/03/25 01:10:38;;;;;;;10.90;7.20;;;;;;;9.91;79.77;98867.91;104848;1250;279990;-70
2023/03/25 01:13:05;;;;;;;9.60;6.90;;;;;;;9.89;79.88;98868.73;104673;1250;138729;-70
2023/03/25 01:15:32;;;;;;;11.80;7.40;;;;;;;9.85;79.87;98869.43;104993;1249;109182;-70
2023/03/25 01:17:59;;;;;;;12.90;8.10;;;;;;;9.81;79.98;98865.98;104975;1249;96636;-70
2023/03/25 01:20:26;;;;;;;13.60;7.70;;;;;;;9.77;80.11;98869.34;104762;1250;138421;-70
2023/03/25 01:22:54;;;;;;;13.30;7.80;;;;;;;9.72;80.09;98872.05;104823;1249;97412;-70
2023/03/25 01:25:21;;;;;;;9.40;7.50;;;;;;;9.67;80.18;98867.59;104816;1250;139081;-70
2023/03/25 01:27:48;;;;;;;11.20;7.80;;;;;;;9.62;80.25;98868.51;104763;1251;107917;-70
2023/03/25 01:30:18;;;;;;;10.00;7.50;;;;;;;9.58;80.42;98872.04;105008;1250;96162;-72
2023/03/25 01:32:45;;;;;;;10.60;7.70;;;;;;;9.54;80.48;98873.79;104870;1249;139160;-71
2023/03/25 01:35:12;;;;;;;10.50;7.80;;;;;;;9.49;80.52;98866.73;104995;1250;96308;-71
2023/03/25 01:37:43;;;;;;;9.90;7.60;;;;;;;9.45;80.66;98861.06;104827;1249;138757;-71
2023/03/25 01:40:17;;;;;;;11.20;7.60;;;;;;;9.41;80.70;98859.52;104964;1249;107722;-71
2023/03/25 01:42:45;;;;;;;13.40;8.20;;;;;;;9.36;80.71;98862.04;105002;1249;97161;-71
2023/03/25 01:45:25;;;;;;;11.30;8.20;;;;;;;9.32;80.81;98867.93;104966;1250;107260;-71
2023/03/25 01:48:00;;;;;;;11.10;8.00;;;;;;;9.27;81.00;98867.34;105024;1250;96071;-70
2023/03/25 01:50:28;;;;;;;14.80;8.60;;;;;;;9.21;81.04;98863.11;104658;1249;139013;-71
2023/03/25 01:52:57;;;;;;;13.40;8.90;;;;;;;9.18;81.35;98860.83;104957;1249;108005;-70
2023/03/25 01:55:26;;;;;;;10.40;8.00;;;;;;;9.15;81.47;98858.89;104885;1249;138628;-70
2023/03/25 01:57:58;;;;;;;14.90;8.60;;;;;;;9.10;81.47;98856.00;104956;1250;107264;-71
2023/03/25 02:00:26;;;;;;;13.80;8.40;;;;;;;9.05;81.53;98859.17;104973;1249;95932;-70
2023/03/25 02:02:57;;;;;;;13.60;9.10;;;;;;;9.01;81.69;98859.04;104926;1250;138144;-69
2023/03/25 02:05:31;;;;;;;12.40;8.30;;;;;;;8.98;81.80;98864.74;104915;1249;108082;-69
2023/03/25 02:08:02;;;;;;;12.70;8.40;;;;;;;8.93;81.93;98873.45;104914;1249;138325;-70
2023/03/25 02:10:29;;;;;;;14.20;9.20;;;;;;;8.90;82.10;98878.14;104973;1249;107757;-69
2023/03/25 02:12:56;;;;;;;11.20;8.90;;;;;;;8.87;82.09;98876.88;104901;1251;139171;-68
2023/03/25 02:15:24;;;;;;;11.60;8.40;;;;;;;8.83;82.13;98876.02;104985;1249;111623;-69
2023/03/25 02:18:10;;;;;;;14.10;8.90;;;;;;;8.78;82.28;98874.32;104996;1249;107642;-70
2023/03/25 02:21:02;;;;;;;12.80;9.00;;;;;;;8.73;82.40;98873.35;104903;1249;138358;-70
2023/03/25 02:23:58;;;;;;;15.70;8.70;;;;;;;8.69;82.49;98865.60;104790;1253;109564;-70
2023/03/25 02:26:58;;;;;;;13.80;8.70;;;;;;;8.66;82.67;98864.35;104687;1249;139421;-70
2023/03/25 02:29:37;;;;;;;12.30;9.50;;;;;;;8.60;82.74;98862.20;104933;1249;111652;-70
2023/03/25 02:32:18;;;;;;;12.90;9.50;;;;;;;8.55;82.79;98860.66;104732;1250;139511;-70
2023/03/25 02:35:07;;;;;;;12.50;9.10;;;;;;;8.53;82.95;98858.05;104847;1249;96916;-70
2023/03/25 02:38:20;;;;;;;13.70;9.80;;;;;;;8.47;82.97;98852.05;104615;1253;139460;-70
2023/03/25 02:40:54;;;;;;;14.60;10.20;;;;;;;8.43;83.14;98854.79;104771;1249;96038;-71
2023/03/25 02:43:31;;;;;;;15.10;10.20;;;;;;;8.41;83.16;98855.06;104653;1250;138873;-70
2023/03/25 02:46:03;;;;;;;12.80;9.70;;;;;;;8.37;83.30;98854.20;104970;1249;105852;-70
2023/03/25 02:48:35;;;;;;;14.50;10.40;;;;;;;8.33;83.47;98856.64;104970;1249;96138;-70
2023/03/25 02:51:11;;;;;;;15.70;10.20;;;;;;;8.30;83.54;98861.10;104805;1250;138218;-70
2023/03/25 02:53:41;;;;;;;14.20;10.40;;;;;;;8.29;83.70;98864.27;104804;1250;95927;-71
2023/03/25 02:56:15;;;;;;;14.30;10.00;;;;;;;8.28;83.58;98866.05;104862;1250;138260;-71
2023/03/25 02:58:44;;;;;;;;;;;;;;;8.26;83.69;98866.64;104931;1250;107656;-70
2023/03/25 03:01:13;;;;;;;14.30;9.60;;;;;;;8.24;83.76;98867.08;104678;1250;124899;-70
2023/03/25 03:03:41;;;;;;;17.40;10.30;;;;;;;8.24;83.84;98867.78;104931;1250;108126;-70
2023/03/25 03:06:20;;;;;;;17.50;10.70;;;;;;;8.22;83.96;98863.00;104951;1249;95980;-71
2023/03/25 03:09:07;;;;;;;15.40;10.20;;;;;;;8.20;83.92;98866.90;104721;1251;138376;-70
2023/03/25 03:11:46;;;;;;;14.80;9.90;;;;;;;8.18;84.02;98872.18;104888;1250;108052;-71
2023/03/25 03:14:37;;;;;;;15.50;10.20;;;;;;;8.16;84.04;98868.66;104822;1250;141315;-70
2023/03/25 03:17:12;;;;;;;14.00;9.70;;;;;;;8.14;84.09;98868.91;104932;1250;107573;-70
2023/03/25 03:19:45;;;;;;;15.40;10.00;;;;;;;8.13;84.13;98873.13;104791;1250;138825;-70
2023/03/25 03:22:43;;;;;;;16.30;10.50;;;;;;;8.11;84.22;98881.52;104854;1248;112289;-70
2023/03/25 03:25:20;;;;;;;16.30;10.40;;;;;;;8.11;84.44;98884.11;104751;1249;138899;-71
2023/03/25 03:28:05;;;;;;;15.20;10.80;;;;;;;8.11;84.39;98882.23;105009;1250;96051;-70
2023/03/25 03:30:38;;;;;;;14.40;10.90;;;;;;;8.08;84.51;98882.53;104960;1249;107953;-71
2023/03/25 03:33:12;;;;;;;13.10;10.30;;;;;;;8.06;84.53;98883.42;104896;1250;138369;-70
2023/03/25 03:35:48;;;;;;;15.60;11.30;;;;;;;8.04;84.44;98884.08;104968;1249;111769;-71
2023/03/25 03:38:22;;;;;;;15.80;10.80;;;;;;;8.01;84.58;98881.28;104797;1249;138852;-70
2023/03/25 03:40:55;;;;;;;15.80;11.40;;;;;;;7.98;84.60;98880.35;104971;1249;95829;-70
2023/03/25 03:43:26;;;;;;;17.90;11.10;;;;;;;7.95;84.59;98871.48;104770;1250;138537;-71
2023/03/25 03:45:59;;;;;;;15.40;11.30;;;;;;;7.94;84.74;98867.56;104937;1249;95996;-70
2023/03/25 03:48:30;;;;;;;14.70;11.40;;;;;;;7.93;84.69;98862.61;104981;1249;111077;-70
2023/03/25 03:51:02;;;;;;;15.60;11.10;;;;;;;7.91;84.84;98858.88;104891;1253;139162;-71
2023/03/25 03:53:33;;;;;;;16.60;11.90;;;;;;;7.90;84.95;98863.55;104984;1250;96010;-71
2023/03/25 03:56:05;;;;;;;17.30;11.70;;;;;;;7.87;84.92;98871.27;104657;1250;139393;-71
2023/03/25 03:58:36;;;;;;;15.80;11.30;;;;;;;7.86;84.97;98877.23;104914;1250;95965;-71
2023/03/25 04:01:11;;;;;;;16.20;11.10;;;;;;;7.84;85.04;98886.62;104851;1249;138969;-72
2023/03/25 04:03:47;;;;;;;17.30;11.40;;;;;;;7.85;85.20;98886.79;104930;1250;109895;-70
2023/03/25 04:06:23;;;;;;;15.30;11.40;;;;;;;7.82;85.20;98878.60;104947;1250;96171;-71
2023/03/25 04:08:58;;;;;;;16.50;11.20;;;;;;;7.79;85.29;98879.08;104857;1253;139453;-71
2023/03/25 04:11:31;;;;;;;14.40;11.00;;;;;;;7.79;85.38;98887.92;104892;1253;96060;-71
2023/03/25 04:14:02;;;;;;;19.30;11.90;;;;;;;7.77;85.40;98886.63;104780;1250;138365;-71
2023/03/25 04:16:31;;;;;;;16.40;12.10;;;;;;;7.75;85.39;98889.98;104908;1253;106206;-72
2023/03/25 04:19:02;;;;;;;15.60;11.40;;;;;;;7.75;85.48;98893.13;104801;1249;139559;-71
2023/03/25 04:21:29;;;;;;;17.00;11.20;;;;;;;7.74;85.57;98896.11;104901;1250;107635;-72
2023/03/25 04:24:00;;;;;;;17.30;11.70;;;;;;;7.72;85.51;98896.16;104909;1250;95879;-71
2023/03/25 04:26:32;;;;;;;18.30;12.00;;;;;;;7.72;85.65;98896.85;104852;1249;139437;-71
2023/03/25 04:29:08;;;;;;;17.00;11.50;;;;;;;7.73;85.77;98899.79;104891;1249;107813;-71
2023/03/25 04:31:36;;;;;;;15.50;11.70;;;;;;;7.72;85.79;98898.59;104905;1250;139398;-70
2023/03/25 04:34:04;;;;;;;18.00;12.20;;;;;;;7.73;85.79;98899.27;104976;1249;107427;-70
2023/03/25 04:36:32;;;;;;;17.10;12.00;;;;;;;7.73;85.84;98905.83;104975;1250;96020;-71
2023/03/25 04:39:00;;;;;;;19.10;12.00;;;;;;;7.74;85.88;98910.14;104889;1252;140479;-71
2023/03/25 04:41:27;;;;;;;17.20;12.00;;;;;;;7.76;86.02;98907.95;104961;1250;107692;-71
2023/03/25 04:43:55;;;;;;;17.80;12.60;;;;;;;7.77;85.87;98905.46;104868;1250;139133;-70
2023/03/25 04:46:22;;;;;;;19.00;13.00;;;;;;;7.79;85.85;98902.27;104972;1249;108164;-71
2023/03/25 04:48:49;;;;;;;16.70;12.20;;;;;;;7.82;85.93;98908.90;104925;1250;139245;-70
2023/03/25 04:51:17;;;;;;;17.70;12.80;;;;;;;7.85;85.87;98902.00;104974;1250;110914;-70
2023/03/25 04:53:44;;;;;;;19.20;13.00;;;;;;;7.88;85.74;98901.01;104926;1249;108334;-70
2023/03/25 04:56:15;;;;;;;18.30;12.70;;;;;;;7.90;85.74;98895.05;104801;1250;138790;-71
2023/03/25 04:58:43;;;;;;;15.00;11.80;;;;;;;7.96;85.82;98892.23;104945;1250;108323;-71
2023/03/25 05:01:16;;;;;;;16.20;12.70;;;;;;;8.05;85.73;98894.73;104790;1253;139005;-70
2023/03/25 05:03:43;;;;;;;15.30;11.50;;;;;;;8.19;85.60;98895.88;104944;1250;109594;-72
2023/03/25 05:06:11;;;;;;;17.90;12.20;;;;;;;8.38;85.36;98900.77;104903;1250;107727;-71
2023/03/25 05:08:38;;;;;;;15.50;11.80;;;;;;;8.56;84.97;98897.88;104840;1250;139150;-70
2023/03/25 05:11:06;;;;;;;16.30;11.40;;;;;;;8.73;84.51;98898.83;104962;1247;106968;-71
2023/03/25 05:13:33;;;;;;;18.30;12.50;;;;;;;8.78;83.99;98901.70;104816;1249;138625;-71
2023/03/25 05:16:00;;;;;;;17.00;11.90;;;;;;;8.80;83.84;98902.84;104948;1250;110284;-71
2023/03/25 05:18:27;;;;;;;17.00;11.50;;;;;;;8.78;83.63;98904.65;104851;1250;106745;-70
2023/03/25 05:20:55;;;;;;;15.70;11.60;;;;;;;8.75;83.71;98901.86;104838;1250;138578;-71
2023/03/25 05:23:23;;;;;;;16.90;12.00;;;;;;;8.76;83.63;98899.91;104924;1250;108424;-71
2023/03/25 05:25:52;;;;;;;15.60;11.10;;;;;;;8.77;83.66;98903.67;104819;1250;138943;-71
2023/03/25 05:28:20;;;;;;;19.20;12.60;;;;;;;8.76;83.53;98903.52;104952;1250;111316;-70
2023/03/25 05:30:48;;;;;;;16.20;11.50;;;;;;;8.76;83.60;98908.20;104940;1250;107234;-71
2023/03/25 05:33:17;;;;;;;17.20;12.50;;;;;;;8.76;83.55;98908.55;104964;1250;96478;-70
2023/03/25 05:35:48;;;;;;;16.20;12.50;;;;;;;8.75;83.51;98916.05;104952;1249;107760;-71
2023/03/25 05:38:17;;;;;;;17.50;12.00;;;;;;;8.74;83.44;98920.47;104789;1250;138583;-71
2023/03/25 05:40:46;;;;;;;15.20;11.30;;;;;;;8.72;83.56;98918.13;104920;1250;110789;-70
2023/03/25 05:43:14;;;;;;;17.20;12.60;;;;;;;8.73;83.52;98916.17;104811;1249;139529;-70
2023/03/25 05:45:41;;;;;;;17.20;12.20;;;;;;;8.73;83.51;98919.99;104933;1249;96610;-70
2023/03/25 05:48:09;;;;;;;17.20;13.10;;;;;;;8.76;83.54;98921.90;104923;1249;106393;-69
2023/03/25 05:50:41;;;;;;;18.40;12.20;;;;;;;8.80;83.62;98922.09;104813;1250;139081;-71
2023/03/25 05:53:10;;;;;;;16.90;12.70;;;;;;;8.83;83.55;98921.96;104930;1249;110311;-71
2023/03/25 05:55:37;;;;;;;18.00;12.60;;;;;;;8.86;83.49;98920.05;104820;1250;139117;-71
2023/03/25 05:58:05;;;;;;;20.30;12.40;;;;;;;8.90;83.45;98920.94;104940;1250;95973;-72
2023/03/25 06:00:32;;;;;;;23.30;13.20;;;;;;;8.92;83.31;98922.08;104794;1251;108330;-73
2023/03/25 06:03:02;;;;;;;18.30;12.40;;;;;;;8.94;83.27;98922.77;104738;1250;138869;-72
2023/03/25 06:05:30;;;;;;;17.10;12.30;;;;;;;8.97;82.98;98927.02;104908;1251;110761;-68
2023/03/25 06:07:57;;;;;;;18.70;12.60;;;;;;;8.98;83.11;98932.86;104713;1250;138799;-73
2023/03/25 06:10:25;;;;;;;17.30;12.30;;;;;;;9.00;83.05;98932.93;104955;1250;96679;-73
2023/03/25 06:12:52;;;;;;;19.50;13.00;;;;;;;9.02;82.97;98929.55;104764;1251;138851;-69
2023/03/25 06:15:27;;;;;;;17.90;12.30;;;;;;;9.07;83.05;98934.66;104837;1249;96437;-71
2023/03/25 06:17:55;;;;;;;17.40;12.20;;;;;;;9.15;82.99;98931.36;104955;1250;111707;-72
2023/03/25 06:20:25;;;;;;;19.60;13.20;;;;;;;9.21;82.79;98933.69;104752;1250;138724;-71
2023/03/25 06:22:52;;;;;;;17.90;13.00;;;;;;;9.29;82.72;98938.31;104914;1250;96164;-70
2023/03/25 06:25:20;;;;;;;15.40;11.90;;;;;;;9.36;82.56;98936.08;104793;1250;138800;-74
2023/03/25 06:27:49;;;;;;;18.20;12.50;;;;;;;9.46;82.46;98934.20;104746;1250;97297;-72
2023/03/25 06:30:19;;;;;;;16.30;11.80;;;;;;;9.57;82.22;98934.58;104927;1250;111327;-71
2023/03/25 06:32:49;;;;;;;17.00;12.30;;;;;;;9.70;82.10;98929.23;104810;1250;139446;-71
2023/03/25 06:35:18;;;;;;;19.30;11.50;;;;;;;9.88;81.83;98926.92;104921;1250;96528;-71
2023/03/25 06:37:47;;;;;;;16.00;11.70;;;;;;;10.11;81.49;98923.66;104777;1251;139023;-70
2023/03/25 06:40:21;;;;;;;16.20;11.40;;;;;;;10.47;80.89;98923.90;104751;1251;96115;-71
2023/03/25 06:42:48;;;;;;;15.50;11.00;;;;;;;10.81;80.17;98923.84;104775;1250;111596;-73
2023/03/25 06:45:38;;;;;;;14.30;10.70;;;;;;;11.04;79.10;98916.85;104877;1250;107203;-70
2023/03/25 06:48:21;;;;;;;13.00;9.90;;;;;;;11.21;78.57;98918.17;104818;1249;95985;-71
2023/03/25 06:50:52;;;;;;;15.90;11.10;;;;;;;11.33;78.10;98920.95;104785;1249;139682;-72
2023/03/25 06:53:21;;;;;;;16.10;10.80;;;;;;;11.36;77.64;98923.21;104850;1249;95656;-70
2023/03/25 06:55:49;;;;;;;14.80;10.90;;;;;;;11.40;77.53;98917.42;104797;1249;138924;-68
2023/03/25 06:58:16;;;;;;;13.90;10.30;;;;;;;11.50;77.17;98917.00;104842;1252;106562;-71
2023/03/25 07:00:44;;;;;;;15.20;10.10;;;;;;;11.64;76.87;98912.41;104879;1251;96803;-71
2023/03/25 07:03:12;;;;;;;16.70;11.30;;;;;;;11.68;76.14;98908.51;104822;1250;109503;-71
2023/03/25 07:05:44;;;;;;;13.20;10.10;;;;;;;11.72;75.82;98906.70;104880;1250;95882;-71
2023/03/25 07:08:12;;;;;;;15.30;10.70;;;;;;;11.81;75.54;98910.21;104750;1250;139177;-72
2023/03/25 07:10:39;;;;;;;14.10;10.20;;;;;;;11.81;75.33;98907.23;104830;1250;108261;-71
2023/03/25 07:13:08;;;;;;;15.50;10.80;;;;;;;11.83;75.47;98910.29;104737;1250;139819;-70
2023/03/25 07:15:36;;;;;;;14.70;10.00;;;;;;;11.94;75.35;98909.44;104803;1250;107735;-70
2023/03/25 07:18:08;;;;;;;13.70;10.10;;;;;;;12.30;74.87;98911.30;104850;1250;95923;-70
2023/03/25 07:20:36;;;;;;;16.90;10.30;;;;;;;12.65;74.12;98913.99;104669;1250;139364;-70
2023/03/25 07:23:03;;;;;;;13.00;9.30;;;;;;;12.98;73.45;98916.13;104840;1250;108153;-69
2023/03/25 07:25:30;;;;;;;15.80;9.60;;;;;;;13.57;72.57;98915.86;104719;1251;139447;-70
2023/03/25 07:27:57;;;;;;;13.50;9.00;;;;;;;14.79;71.55;98912.78;104886;1250;107823;-70
2023/03/25 07:30:24;;;;;;;12.90;9.10;;;;;;;16.12;69.66;98911.23;104765;1255;96039;-70
2023/03/25 07:32:53;;;;;;;14.30;9.30;;;;;;;16.98;67.43;98901.95;104742;1250;137723;-70
2023/03/25 07:35:20;;;;;;;11.00;8.50;;;;;;;17.50;65.60;98898.08;104822;1250;106389;-72
2023/03/25 07:37:47;;;;;;;13.90;8.40;;;;;;;18.29;64.53;98891.43;104788;1250;138026;-72
2023/03/25 07:40:16;;;;;;;11.50;7.80;;;;;;;19.07;61.89;98897.16;104872;1250;107297;-71
2023/03/25 07:42:45;;;;;;;13.30;8.20;;;;;;;19.69;61.21;98899.53;104899;1249;95632;-65
2023/03/25 07:45:20;;;;;;;13.40;7.80;;;;;;;20.29;58.51;98895.77;104799;1250;111106;-69
2023/03/25 07:47:50;;;;;;;10.90;8.40;;;;;;;19.96;57.33;98895.80;104758;1251;107757;-65
2023/03/25 07:50:18;;;;;;;14.30;8.10;;;;;;;20.05;57.54;98903.18;104743;1249;137986;-66
2023/03/25 07:52:45;;;;;;;14.70;7.60;;;;;;;20.21;56.10;98892.41;104868;1250;106608;-66
2023/03/25 07:55:13;;;;;;;12.50;7.70;;;;;;;20.64;56.10;98894.56;104635;1251;138834;-63
2023/03/25 07:57:40;;;;;;;11.70;8.00;;;;;;;21.75;54.78;98898.04;104715;1250;110548;-64
2023/03/25 08:00:11;;;;;;;11.50;7.40;;;;;;;22.45;52.77;98890.66;104808;1250;109640;-63
2023/03/25 08:02:40;;;;;;;10.30;7.30;;;;;;;22.46;50.83;98896.69;104747;1250;139716;-65
2023/03/25 08:05:08;;;;;;;10.80;7.30;;;;;;;22.11;50.21;98897.48;104873;1253;107413;-69
2023/03/25 08:07:35;;;;;;;14.10;7.70;;;;;;;21.97;50.42;98895.73;104647;1250;138960;-69
2023/03/25 08:10:03;;;;;;;11.40;7.00;;;;;;;22.40;50.67;98887.11;104862;1250;110958;-69
2023/03/25 08:12:30;;;;;;;10.50;7.00;;;;;;;22.99;49.30;98883.55;104789;1250;107284;-69
2023/03/25 08:14:58;;;;;;;9.50;7.10;;;;;;;23.90;48.23;98883.73;104705;1250;138414;-67
2023/03/25 08:17:26;;;;;;;8.60;6.50;;;;;;;24.59;46.68;98882.64;104860;1251;107563;-69
2023/03/25 08:19:53;;;;;;;10.30;7.00;;;;;;;25.37;45.24;98886.10;104734;1250;139184;-69
2023/03/25 08:22:20;;;;;;;11.30;7.10;;;;;;;26.00;44.50;98884.98;104907;1250;111315;-69
2023/03/25 08:24:48;;;;;;;11.70;6.60;;;;;;;26.68;43.17;98885.27;104860;1250;107082;-68
2023/03/25 08:27:15;;;;;;;9.50;6.20;;;;;;;27.41;42.86;98885.02;104803;1251;137998;-67
2023/03/25 08:29:42;;;;;;;11.00;6.50;;;;;;;28.15;41.93;98882.93;104889;1250;108442;-68
2023/03/25 08:32:10;;;;;;;9.80;7.00;;;;;;;28.49;40.56;98874.80;104707;1251;137920;-69
2023/03/25 08:34:38;;;;;;;10.80;6.70;;;;;;;28.69;40.31;98871.98;104856;1255;111060;-70
2023/03/25 08:37:07;;;;;;;7.80;6.50;;;;;;;29.00;39.50;98863.89;104710;1250;138270;-67
2023/03/25 08:39:38;;;;;;;8.40;5.90;;;;;;;28.98;39.05;98865.54;104841;1253;96093;-63
2023/03/25 08:42:06;;;;;;;9.40;6.50;;;;;;;29.14;38.35;98868.98;104775;1250;107427;-64
2023/03/25 08:44:33;;;;;;;9.60;5.80;;;;;;;29.32;37.70;98868.61;104700;1249;137950;-64
2023/03/25 08:47:00;;;;;;;8.80;6.00;;;;;;;29.50;37.10;98863.84;104868;1250;111479;-65
2023/03/25 08:49:27;;;;;;;8.30;5.70;;;;;;;29.76;36.99;98864.24;104645;1250;137937;-67
2023/03/25 08:51:56;;;;;;;7.80;5.40;;;;;;;29.92;35.82;98858.41;104872;1250;95984;-68
2023/03/25 08:54:24;;;;;;;9.10;5.40;;;;;;;30.11;35.50;98858.05;104822;1251;107051;-67
2023/03/25 08:56:52;;;;;;;7.80;5.50;;;;;;;30.30;35.71;98864.65;104726;1250;139419;-68
2023/03/25 08:59:19;;;;;;;11.30;5.70;;;;;;;30.56;35.46;98859.30;104889;1250;111426;-67
2023/03/25 09:01:48;;;;;;;7.20;5.30;;;;;;;30.64;35.13;98863.84;104607;1250;138724;-66
2023/03/25 09:04:15;;;;;;;6.40;5.00;;;;;;;30.87;34.28;98860.83;104853;1250;96108;-68
2023/03/25 09:06:42;;;;;;;6.90;5.20;;;;;;;30.76;34.30;98860.38;104799;1251;107375;-67
2023/03/25 09:09:14;;;;;;;11.00;5.20;;;;;;;30.65;33.84;98861.19;104740;1250;138240;-66
2023/03/25 09:11:41;;;;;;;7.90;5.60;;;;;;;30.02;32.80;98862.42;104754;1253;112308;-66
2023/03/25 09:14:08;;;;;;;7.80;5.30;;;;;;;29.12;33.21;98860.23;104637;1253;137783;-67
2023/03/25 09:16:36;;;;;;;11.60;6.00;;;;;;;28.59;34.28;98863.35;104893;1250;95887;-67
2023/03/25 09:19:03;;;;;;;9.70;6.20;;;;;;;28.30;34.26;98864.31;104770;1250;139976;-67
2023/03/25 09:21:30;;;;;;;9.90;6.60;;;;;;;27.38;34.61;98865.18;104821;1250;96384;-67
2023/03/25 09:23:58;;;;;;;9.10;6.50;;;;;;;26.39;35.48;98861.48;104937;1250;111287;-65
2023/03/25 09:26:26;;;;;;;11.20;5.70;;;;;;;25.62;35.83;98858.34;104767;1250;137717;-66
2023/03/25 09:28:54;;;;;;;7.90;5.10;;;;;;;24.87;36.31;98865.85;104922;1250;95881;-68
2023/03/25 09:31:21;;;;;;;10.60;5.50;;;;;;;24.13;37.08;98867.05;104779;1254;137832;-66
2023/03/25 09:33:48;;;;;;;7.70;5.00;;;;;;;23.52;37.67;98870.19;104881;1250;95886;-66
2023/03/25 09:36:15;;;;;;;8.30;5.40;;;;;;;22.93;37.90;98869.73;104902;1250;110790;-66
2023/03/25 09:38:42;;;;;;;7.60;4.80;;;;;;;22.35;38.39;98867.73;104753;1250;138373;-68
2023/03/25 09:41:30;;;;;;;8.20;5.00;;;;;;;21.76;38.99;98872.34;104938;1250;95777;-67
2023/03/25 09:44:08;;;;;;;9.30;5.10;;;;;;;21.13;39.78;98869.73;104774;1251;138133;-66
2023/03/25 09:46:36;;;;;;;9.60;5.60;;;;;;;20.65;40.98;98869.95;104835;1250;95923;-67
2023/03/25 09:49:04;;;;;;;9.10;5.10;;;;;;;20.39;41.55;98873.23;104763;1251;138344;-66
2023/03/25 09:51:35;;;;;;;9.20;5.00;;;;;;;20.10;42.02;98867.14;104899;1254;108520;-67
2023/03/25 09:54:15;;;;;;;10.50;5.70;;;;;;;19.77;42.30;98868.45;104922;1251;95939;-67
2023/03/25 09:56:44;;;;;;;7.60;5.40;;;;;;;19.47;42.93;98870.02;104747;1250;137798;-66
2023/03/25 09:59:17;;;;;;;8.40;5.10;;;;;;;19.27;43.85;98877.58;104868;1251;96280;-67
2023/03/25 10:01:53;;;;;;;11.20;5.80;;;;;;;19.14;44.26;98878.61;104803;1252;137579;-67
2023/03/25 10:04:46;;;;;;;14.20;6.60;;;;;;;19.00;44.64;98882.65;104843;1250;107336;-66
2023/03/25 10:07:29;;;;;;;9.60;5.80;;;;;;;19.02;44.79;98882.32;104827;1251;138668;-65
2023/03/25 10:10:03;;;;;;;11.80;7.50;;;;;;;19.02;45.36;98878.23;104872;1253;107479;-66
2023/03/25 10:12:42;;;;;;;11.50;7.30;;;;;;;19.20;44.95;98870.50;104937;1251;95887;-66
2023/03/25 10:15:26;;;;;;;8.50;5.40;;;;;;;19.26;44.91;98869.40;104756;1252;138761;-66
2023/03/25 10:18:15;;;;;;;7.60;4.90;;;;;;;19.47;45.03;98872.45;104869;1251;107002;-66
2023/03/25 10:20:53;;;;;;;8.60;5.50;;;;;;;19.75;44.97;98873.95;104812;1251;138543;-66
2023/03/25 10:23:27;;;;;;;11.40;6.10;;;;;;;20.01;44.59;98868.23;104886;1254;106968;-64
2023/03/25 10:26:00;;;;;;;7.80;5.50;;;;;;;20.63;44.34;98863.58;104772;1251;138710;-66
2023/03/25 10:28:33;;;;;;;8.50;5.50;;;;;;;21.28;43.61;98863.31;104849;1250;110946;-65
2023/03/25 10:31:02;;;;;;;8.80;5.90;;;;;;;21.58;43.08;98853.26;104731;1254;138444;-65
2023/03/25 10:33:33;;;;;;;6.40;5.10;;;;;;;22.06;42.98;98850.67;104909;1254;95935;-66
2023/03/25 10:36:02;;;;;;;7.70;5.10;;;;;;;22.70;42.53;98844.55;104864;1254;107548;-67
2023/03/25 10:38:33;;;;;;;7.30;4.90;;;;;;;23.10;41.47;98838.68;104734;1251;138350;-65
2023/03/25 10:41:11;;;;;;;8.20;4.80;;;;;;;23.49;41.48;98837.77;104913;1252;112282;-67
2023/03/25 10:43:41;;;;;;;9.40;5.70;;;;;;;23.77;40.67;98834.57;104744;1253;137774;-66
2023/03/25 10:46:18;;;;;;;7.20;5.10;;;;;;;23.67;40.03;98835.34;104866;1251;95943;-66
2023/03/25 10:48:47;;;;;;;6.60;4.80;;;;;;;23.42;40.09;98836.64;104907;1251;107378;-66
2023/03/25 10:51:16;;;;;;;9.90;5.20;;;;;;;23.41;40.49;98832.74;104749;1253;137953;-66
2023/03/25 10:53:48;;;;;;;8.50;5.10;;;;;;;23.57;40.31;98831.00;104932;1251;112702;-66
2023/03/25 10:56:17;;;;;;;6.90;4.40;;;;;;;23.56;40.12;98827.12;104682;1251;138485;-64
2023/03/25 10:58:48;;;;;;;6.50;4.30;;;;;;;23.59;40.02;98824.05;104800;1253;95767;-65
2023/03/25 11:01:18;;;;;;;5.80;3.40;;;;;;;23.63;40.01;98824.83;104732;1251;137898;-63
2023/03/25 11:03:46;;;;;;;7.20;3.60;;;;;;;23.59;39.33;98828.61;104801;1251;97011;-64
2023/03/25 11:06:24;;;;;;;6.40;3.20;;;;;;;23.18;38.40;98828.95;104806;1250;110898;-70
2023/03/25 11:09:14;;;;;;;7.70;3.10;;;;;;;22.58;37.61;98825.17;104718;1253;137786;-70
2023/03/25 11:11:43;;;;;;;6.00;2.90;;;;;;;22.00;38.26;98821.79;104919;1253;96085;-70
2023/03/25 11:14:12;;;;;;;6.60;3.00;;;;;;;21.69;38.56;98821.84;104766;1251;137743;-67
2023/03/25 11:16:43;;;;;;;5.50;2.80;;;;;;;21.41;38.78;98821.31;104860;1253;95905;-69
2023/03/25 11:19:19;;;;;;;5.90;2.90;;;;;;;21.06;39.08;98816.41;104721;1253;138134;-70
2023/03/25 11:21:48;;;;;;;6.50;3.20;;;;;;;20.90;39.68;98813.16;104792;1251;107278;-68
2023/03/25 11:24:17;;;;;;;5.10;2.60;;;;;;;20.94;39.51;98805.77;104855;1253;96917;-68
2023/03/25 11:26:51;;;;;;;3.60;2.30;;;;;;;20.85;39.75;98797.31;104746;1249;138153;-67
2023/03/25 11:29:21;;;;;;;5.80;2.20;;;;;;;20.99;39.71;98794.88;104860;1251;95796;-61
2023/03/25 11:31:58;;;;;;;5.70;2.10;;;;;;;21.03;39.57;98790.28;104665;1251;137614;-68